Time;durP1;ratioP1;P1;durP2;ratioP2;P2;SDS_P1;SDS_P2;PMS_P1;PMS_P2;Temp;Humidity;BMP_temperature;BMP_pressure;BME280_temperature;BME280_humidity;BME280_pressure;Samples;Min_cycle;Max_cycle;Signal;HPM_P1;HPM_P2
2022/06/11 00:01:57;;;;;;;2.60;1.67;;;;;;;16.63;80.21;102139.69;4898015;29;20048;-80
2022/06/11 00:04:33;;;;;;;3.08;1.65;;;;;;;16.61;80.23;102138.91;4913325;29;20040;-80
2022/06/11 00:07:10;;;;;;;4.05;1.73;;;;;;;16.62;80.06;102140.63;4907143;29;20063;-79
2022/06/11 00:09:36;;;;;;;3.42;1.55;;;;;;;16.60;80.30;102141.63;4912845;29;20116;-80
2022/06/11 00:12:03;;;;;;;5.65;1.98;;;;;;;16.60;80.08;102144.28;4911572;29;20165;-79
2022/06/11 00:14:33;;;;;;;4.13;1.30;;;;;;;16.59;80.28;102137.25;4895419;29;20032;-79
2022/06/11 00:16:59;;;;;;;4.68;1.67;;;;;;;16.58;79.78;102135.56;4911880;29;20051;-79
2022/06/11 00:19:26;;;;;;;5.72;1.80;;;;;;;16.58;80.11;102139.06;4903643;29;20486;-79
2022/06/11 00:21:53;;;;;;;12.32;2.47;;;;;;;16.58;80.31;102135.56;4910091;29;20040;-79
2022/06/11 00:24:20;;;;;;;2.83;1.50;;;;;;;16.56;80.10;102140.06;4907291;29;20037;-79
2022/06/11 00:26:48;;;;;;;4.72;1.70;;;;;;;16.54;80.34;102129.53;4913087;29;20052;-80
2022/06/11 00:29:14;;;;;;;3.83;2.13;;;;;;;16.52;80.31;102134.06;4925727;29;20084;-79
2022/06/11 00:31:40;;;;;;;6.20;1.83;;;;;;;16.51;80.43;102135.81;4919827;29;20333;-79
2022/06/11 00:34:06;;;;;;;8.02;1.40;;;;;;;16.49;80.30;102134.19;4914044;29;20036;-80
2022/06/11 00:36:32;;;;;;;6.22;1.88;;;;;;;16.45;80.67;102137.91;4923245;29;20090;-79
2022/06/11 00:38:58;;;;;;;3.85;1.58;;;;;;;16.45;80.78;102146.69;4910680;29;20112;-80
2022/06/11 00:41:26;;;;;;;2.50;1.67;;;;;;;16.43;80.72;102140.59;4923919;29;20204;-79
2022/06/11 00:43:53;;;;;;;6.03;1.30;;;;;;;16.43;80.70;102137.97;4906759;29;20355;-80
2022/06/11 00:47:04;;;;;;;3.05;1.70;;;;;;;16.43;81.11;102137.13;4914645;29;20087;-79
2022/06/11 00:49:39;;;;;;;5.80;1.65;;;;;;;16.41;80.95;102133.66;4887317;29;20064;-79
2022/06/11 00:52:16;;;;;;;1.88;1.35;;;;;;;16.40;80.83;102135.44;4914701;29;20354;-80
2022/06/11 00:54:47;;;;;;;2.05;0.90;;;;;;;16.40;80.73;102139.88;4917606;29;20212;-79
2022/06/11 00:57:14;;;;;;;3.45;2.00;;;;;;;16.40;80.57;102134.59;4912369;29;20036;-79
2022/06/11 00:59:57;;;;;;;2.83;1.48;;;;;;;16.40;80.51;102145.16;4898162;29;20044;-79
2022/06/11 01:02:22;;;;;;;3.15;1.70;;;;;;;16.37;80.66;102147.94;4907549;29;20264;-79
2022/06/11 01:04:54;;;;;;;3.67;2.00;;;;;;;16.34;80.06;102142.81;4890355;29;20100;-80
2022/06/11 01:07:48;;;;;;;10.27;1.67;;;;;;;16.31;80.24;102141.16;4916106;29;20315;-79
2022/06/11 01:10:40;;;;;;;3.83;1.50;;;;;;;16.26;80.17;102141.34;4909343;29;20047;-79
2022/06/11 01:13:09;;;;;;;5.07;2.00;;;;;;;16.27;79.99;102134.28;4906275;29;20061;-79
2022/06/11 01:15:41;;;;;;;2.55;1.35;;;;;;;16.24;80.02;102135.25;4910229;29;20036;-79
2022/06/11 01:18:25;;;;;;;4.32;1.48;;;;;;;16.22;80.44;102137.13;4923002;29;20028;-80
2022/06/11 01:21:08;;;;;;;4.72;1.58;;;;;;;16.18;80.34;102140.81;4911216;29;20055;-79
2022/06/11 01:23:34;;;;;;;4.15;1.85;;;;;;;16.17;80.48;102147.06;4904818;29;21323;-79
2022/06/11 01:26:34;;;;;;;2.92;1.50;;;;;;;16.13;80.28;102142.81;4905782;29;20347;-79
2022/06/11 01:29:11;;;;;;;2.03;1.30;;;;;;;16.11;80.42;102139.38;4853697;29;20051;-79
2022/06/11 01:31:49;;;;;;;3.63;1.63;;;;;;;16.09;80.47;102142.06;4907010;29;20044;-80
2022/06/11 01:34:37;;;;;;;4.80;1.63;;;;;;;16.07;80.65;102143.94;4906344;29;20050;-79
2022/06/11 01:37:09;;;;;;;2.63;1.45;;;;;;;16.05;80.63;102147.56;4909879;29;20091;-79
2022/06/11 01:40:12;;;;;;;4.65;1.70;;;;;;;16.02;80.26;102147.69;4906080;29;20067;-79
2022/06/11 01:42:58;;;;;;;5.05;1.45;;;;;;;16.00;80.60;102150.41;4859892;29;20044;-80
2022/06/11 01:45:36;;;;;;;4.95;1.85;;;;;;;15.96;80.93;102145.31;4914949;29;20035;-80
2022/06/11 01:48:04;;;;;;;6.28;1.63;;;;;;;15.97;80.92;102147.03;4923608;29;20034;-79
2022/06/11 01:50:35;;;;;;;4.70;1.60;;;;;;;15.96;80.76;102150.63;4924345;29;20048;-79
2022/06/11 01:53:25;;;;;;;4.70;1.98;;;;;;;15.94;80.93;102145.38;4923766;29;20027;-79
2022/06/11 01:56:25;;;;;;;3.95;1.70;;;;;;;15.93;81.08;102152.47;4923314;29;20119;-79
2022/06/11 01:59:17;;;;;;;3.63;1.40;;;;;;;15.93;81.21;102152.47;4923289;29;20036;-79
2022/06/11 02:02:12;;;;;;;7.30;1.67;;;;;;;15.92;81.21;102156.00;4898224;29;20373;-79
2022/06/11 02:04:43;;;;;;;4.63;1.58;;;;;;;15.92;81.01;102163.94;4908016;29;20286;-79
2022/06/11 02:07:22;;;;;;;6.88;2.00;;;;;;;15.89;80.88;102164.06;4910428;29;20044;-79
2022/06/11 02:10:29;;;;;;;2.25;1.30;;;;;;;15.87;80.64;102162.41;4905588;29;20040;-79
2022/06/11 02:13:10;;;;;;;4.97;1.88;;;;;;;15.80;79.85;102167.09;4905366;29;20036;-79
2022/06/11 02:15:54;;;;;;;6.82;1.88;;;;;;;15.78;79.97;102176.00;4919423;29;20059;-79
2022/06/11 02:18:23;;;;;;;10.90;1.95;;;;;;;15.76;80.15;102167.31;4933816;29;20340;-79
2022/06/11 02:21:01;;;;;;;7.70;2.05;;;;;;;15.75;80.04;102171.69;4919293;29;20114;-79
2022/06/11 02:23:33;;;;;;;8.90;1.73;;;;;;;15.73;79.67;102165.59;4905105;29;20033;-79
2022/06/11 02:26:05;;;;;;;4.78;1.90;;;;;;;15.72;79.32;102161.25;4912398;29;20039;-79
2022/06/11 02:28:37;;;;;;;9.98;2.45;;;;;;;15.70;79.56;102163.09;4919184;29;20036;-79
2022/06/11 02:31:06;;;;;;;4.85;1.75;;;;;;;15.69;79.32;102172.78;4922313;29;20075;-79
2022/06/11 02:33:34;;;;;;;6.05;2.00;;;;;;;15.67;79.54;102165.84;4922579;29;20056;-79
2022/06/11 02:36:27;;;;;;;6.03;2.13;;;;;;;15.67;79.50;102172.00;4915132;29;20036;-79
2022/06/11 02:38:54;;;;;;;8.68;2.00;;;;;;;15.65;79.31;102167.69;4911220;29;20047;-80
2022/06/11 02:41:23;;;;;;;5.85;1.95;;;;;;;15.65;79.63;102171.19;4922606;29;20318;-79
2022/06/11 02:43:49;;;;;;;5.53;1.90;;;;;;;15.65;79.53;102168.56;4921063;29;20036;-79
2022/06/11 02:49:00;;;;;;;11.25;2.35;;;;;;;15.65;79.61;102170.34;4911958;29;20100;-79
2022/06/11 02:51:28;;;;;;;9.48;2.42;;;;;;;15.64;79.33;102169.47;4920312;29;20064;-79
2022/06/11 02:53:53;;;;;;;6.45;1.88;;;;;;;15.63;79.04;102175.69;4918280;29;20223;-78
2022/06/11 02:56:20;;;;;;;12.07;2.55;;;;;;;15.61;78.96;102177.53;4904758;29;20076;-78
2022/06/11 02:58:45;;;;;;;9.98;2.35;;;;;;;15.60;78.99;102174.94;4914076;29;20035;-78
2022/06/11 03:01:10;;;;;;;10.00;2.63;;;;;;;15.59;78.63;102182.03;4903890;29;20060;-78
2022/06/11 03:03:37;;;;;;;8.07;2.03;;;;;;;15.58;78.57;102182.94;4871059;29;20036;-78
2022/06/11 03:06:03;;;;;;;7.50;2.60;;;;;;;15.58;78.61;102179.44;4903557;29;20036;-78
2022/06/11 03:08:29;;;;;;;10.95;3.08;;;;;;;15.58;78.70;102182.06;4895441;29;20045;-79
2022/06/11 03:10:55;;;;;;;11.30;3.03;;;;;;;15.53;78.76;102191.06;4921807;29;20303;-79
2022/06/11 03:13:22;;;;;;;10.73;2.33;;;;;;;15.54;78.55;102194.53;4888702;29;20044;-78
2022/06/11 03:15:47;;;;;;;10.48;2.33;;;;;;;15.50;78.20;102195.59;4888184;29;20047;-78
2022/06/11 03:18:13;;;;;;;12.23;2.72;;;;;;;15.50;78.64;102195.59;4913204;29;20115;-78
2022/06/11 03:20:39;;;;;;;6.60;1.83;;;;;;;15.50;78.74;102195.59;4909101;29;20039;-78
2022/06/11 03:23:06;;;;;;;15.95;3.08;;;;;;;15.47;78.68;102190.44;4903851;29;20083;-78
2022/06/11 03:25:31;;;;;;;8.65;2.72;;;;;;;15.47;78.89;102198.34;4920724;29;20052;-78
2022/06/11 03:27:57;;;;;;;12.40;2.83;;;;;;;15.45;79.11;102194.91;4903676;29;20226;-79
2022/06/11 03:30:22;;;;;;;10.82;2.65;;;;;;;15.45;78.69;102194.91;4888579;29;20032;-78
2022/06/11 03:32:48;;;;;;;11.63;2.53;;;;;;;15.44;78.56;102199.31;4904000;29;20040;-78
2022/06/11 03:35:15;;;;;;;9.98;2.47;;;;;;;15.44;78.70;102201.94;4888389;29;20032;-78
2022/06/11 03:37:40;;;;;;;14.57;3.30;;;;;;;15.41;78.92;102210.00;4904681;29;20048;-78
2022/06/11 03:40:07;;;;;;;17.85;3.03;;;;;;;15.40;78.85;102210.06;4888971;29;20040;-78
2022/06/11 03:42:33;;;;;;;14.60;3.38;;;;;;;15.37;78.76;102208.38;4888488;29;20032;-78
2022/06/11 03:44:59;;;;;;;15.20;3.63;;;;;;;15.35;79.06;102213.75;4887859;29;20054;-78
2022/06/11 03:47:24;;;;;;;10.85;2.60;;;;;;;15.32;79.16;102215.66;4888498;29;20361;-78
2022/06/11 03:49:50;;;;;;;17.40;3.13;;;;;;;15.31;79.35;102224.47;4908329;29;20027;-79
2022/06/11 03:52:16;;;;;;;9.40;2.90;;;;;;;15.30;79.55;102225.41;4896740;29;20043;-78
2022/06/11 03:54:42;;;;;;;11.35;2.78;;;;;;;15.29;79.50;102226.31;4902863;29;20250;-78
2022/06/11 03:57:08;;;;;;;13.05;2.63;;;;;;;15.29;79.81;102227.16;4908121;29;20251;-78
2022/06/11 03:59:33;;;;;;;10.57;2.33;;;;;;;15.28;79.80;102232.50;4906287;29;20072;-78
2022/06/11 04:01:59;;;;;;;12.13;2.45;;;;;;;15.29;80.04;102234.22;4905237;29;20036;-78
2022/06/11 04:04:25;;;;;;;21.80;3.47;;;;;;;15.30;79.88;102233.31;4918022;29;20044;-79
2022/06/11 04:06:53;;;;;;;20.48;3.55;;;;;;;15.29;80.14;102232.44;4908360;29;20227;-79
2022/06/11 04:09:25;;;;;;;12.77;2.58;;;;;;;15.31;80.25;102235.88;4923302;29;20056;-78
2022/06/11 04:11:51;;;;;;;13.20;2.97;;;;;;;15.30;80.31;102234.19;4914361;29;20049;-78
2022/06/11 04:14:17;;;;;;;17.98;3.35;;;;;;;15.30;80.34;102238.59;4905508;29;20044;-78
2022/06/11 04:17:03;;;;;;;14.88;2.85;;;;;;;15.28;80.33;102249.22;4912648;29;20044;-78
2022/06/11 04:19:32;;;;;;;13.70;3.05;;;;;;;15.28;80.74;102248.34;4922928;29;20338;-78
2022/06/11 04:21:58;;;;;;;9.52;2.47;;;;;;;15.27;80.40;102247.47;4916607;29;20040;-78
2022/06/11 04:24:25;;;;;;;12.35;2.80;;;;;;;15.27;80.71;102242.19;4923158;29;20032;-78
2022/06/11 04:26:53;;;;;;;19.73;3.60;;;;;;;15.27;80.76;102246.63;4909136;29;20040;-79
2022/06/11 04:29:23;;;;;;;13.20;3.00;;;;;;;15.26;81.00;102248.41;4907426;29;20137;-78
2022/06/11 04:31:51;;;;;;;17.33;3.58;;;;;;;15.25;81.39;102254.59;4923177;29;20661;-78
2022/06/11 04:34:17;;;;;;;12.87;3.27;;;;;;;15.25;81.58;102262.53;4924219;29;20036;-78
2022/06/11 04:36:45;;;;;;;14.93;3.83;;;;;;;15.25;81.57;102261.66;4914492;29;20032;-78
2022/06/11 04:39:13;;;;;;;20.50;3.90;;;;;;;15.25;81.69;102269.59;4920760;29;20041;-78
2022/06/11 04:41:38;;;;;;;26.38;4.13;;;;;;;15.24;82.13;102259.94;4906213;29;20040;-78
2022/06/11 04:44:04;;;;;;;18.15;4.20;;;;;;;15.25;82.34;102259.03;4909996;29;20302;-78
2022/06/11 04:46:29;;;;;;;16.55;3.50;;;;;;;15.24;82.65;102255.50;4921029;29;20036;-78
2022/06/11 04:48:55;;;;;;;20.60;4.05;;;;;;;15.25;82.44;102259.03;4916348;29;20043;-78
2022/06/11 04:51:21;;;;;;;17.40;3.55;;;;;;;15.24;82.86;102254.66;4920657;29;20141;-78
2022/06/11 04:53:48;;;;;;;17.00;3.60;;;;;;;15.25;82.74;102257.25;4903841;29;20135;-78
2022/06/11 04:56:17;;;;;;;28.83;4.60;;;;;;;15.24;82.93;102263.41;4910148;29;20300;-78
2022/06/11 04:58:44;;;;;;;13.98;3.50;;;;;;;15.26;83.00;102264.25;4922836;29;20036;-78
2022/06/11 05:01:10;;;;;;;16.38;3.47;;;;;;;15.25;82.99;102270.44;4917029;29;20048;-78
2022/06/11 05:03:35;;;;;;;17.73;4.18;;;;;;;15.26;83.34;102273.94;4911877;29;20052;-78
2022/06/11 05:06:01;;;;;;;22.48;3.90;;;;;;;15.26;83.51;102276.56;4897628;29;20048;-78
2022/06/11 05:08:26;;;;;;;29.67;5.15;;;;;;;15.25;83.71;102272.22;4891961;29;20362;-78
2022/06/11 05:10:52;;;;;;;18.52;4.72;;;;;;;15.25;83.68;102265.16;4875505;29;20042;-78
2022/06/11 05:13:18;;;;;;;23.77;4.28;;;;;;;15.26;83.61;102273.94;4905948;29;20067;-78
2022/06/11 05:15:47;;;;;;;28.63;4.93;;;;;;;15.27;83.71;102273.88;4921116;29;20335;-78
2022/06/11 05:18:14;;;;;;;13.55;3.63;;;;;;;15.26;84.14;102269.53;4907054;29;20052;-78
2022/06/11 05:20:40;;;;;;;17.67;3.63;;;;;;;15.26;83.99;102273.94;4903609;29;20035;-78
2022/06/11 05:23:06;;;;;;;23.52;4.70;;;;;;;15.27;84.07;102271.22;4922097;29;20051;-78
2022/06/11 05:25:33;;;;;;;20.20;4.30;;;;;;;15.27;84.29;102268.59;4921699;29;20048;-79
2022/06/11 05:27:59;;;;;;;20.50;4.30;;;;;;;15.29;84.21;102268.53;4900565;29;20082;-78
2022/06/11 05:30:27;;;;;;;19.38;3.63;;;;;;;15.30;84.29;102273.78;4917311;29;20048;-78
2022/06/11 05:32:53;;;;;;;26.30;4.70;;;;;;;15.30;84.60;102275.56;4904027;29;20227;-78
2022/06/11 05:35:26;;;;;;;22.08;4.20;;;;;;;15.30;84.97;102279.03;4914717;29;20043;-78
2022/06/11 05:37:53;;;;;;;18.67;4.00;;;;;;;15.31;84.65;102272.84;4905508;29;20358;-78
2022/06/11 05:40:22;;;;;;;19.25;3.95;;;;;;;15.31;84.55;102278.09;4918434;29;20036;-78
2022/06/11 05:42:47;;;;;;;;;;;;;;;15.32;84.69;102282.50;4905649;29;20104;-78
2022/06/11 05:45:18;;;;;;;15.68;4.10;;;;;;;15.34;84.72;102285.06;4883609;29;20206;-78
2022/06/11 05:47:46;;;;;;;20.83;4.10;;;;;;;15.33;84.50;102286.84;4900300;29;20242;-79
2022/06/11 05:50:18;;;;;;;15.13;3.85;;;;;;;15.35;84.66;102285.03;4900444;29;20040;-78
2022/06/11 05:52:45;;;;;;;32.33;5.95;;;;;;;15.35;85.04;102277.09;4893502;29;20129;-78
2022/06/11 05:55:25;;;;;;;29.42;4.85;;;;;;;15.38;84.75;102283.19;4900021;29;20342;-78
2022/06/11 05:57:53;;;;;;;16.58;3.67;;;;;;;15.40;85.17;102282.19;4891239;29;20059;-78
2022/06/11 06:00:20;;;;;;;18.85;4.18;;;;;;;15.41;84.45;102285.69;4907322;29;20044;-78
2022/06/11 06:02:45;;;;;;;17.60;3.55;;;;;;;15.41;84.75;102283.91;4906758;29;20362;-78
2022/06/11 06:05:18;;;;;;;21.92;4.00;;;;;;;15.42;84.41;102287.41;4909875;29;20040;-78
2022/06/11 06:07:43;;;;;;;18.50;3.83;;;;;;;15.44;84.02;102283.78;4908231;29;20264;-78
2022/06/11 06:10:08;;;;;;;28.58;5.32;;;;;;;15.43;84.72;102282.06;4904743;29;20154;-78
2022/06/11 06:12:36;;;;;;;10.43;3.15;;;;;;;15.43;84.59;102292.63;4922650;29;20040;-78
2022/06/11 06:15:14;;;;;;;18.15;4.10;;;;;;;15.44;84.37;102296.97;4903794;29;20128;-78
2022/06/11 06:17:40;;;;;;;21.60;4.18;;;;;;;15.45;84.47;102293.44;4923623;29;20084;-78
2022/06/11 06:20:09;;;;;;;21.13;4.55;;;;;;;15.46;84.61;102295.19;4921608;29;20016;-78
2022/06/11 06:22:35;;;;;;;29.77;5.53;;;;;;;15.46;84.44;102289.00;4905396;29;20037;-78
2022/06/11 06:25:00;;;;;;;32.58;4.75;;;;;;;15.48;84.33;102295.97;4908439;29;20043;-78
2022/06/11 06:27:26;;;;;;;16.70;3.38;;;;;;;15.50;84.19;102295.91;4913736;29;20283;-78
2022/06/11 06:29:52;;;;;;;21.10;4.15;;;;;;;15.51;83.44;102293.19;4910608;29;20063;-78
2022/06/11 06:32:17;;;;;;;18.13;3.60;;;;;;;15.52;83.41;102296.72;4918918;29;20119;-78
2022/06/11 06:34:43;;;;;;;23.30;4.15;;;;;;;15.53;83.83;102301.06;4909556;29;20327;-78
2022/06/11 06:37:09;;;;;;;32.45;5.55;;;;;;;15.53;83.35;102301.94;4909427;29;20048;-78
2022/06/11 06:39:35;;;;;;;15.48;3.40;;;;;;;15.55;83.49;102307.13;4897864;29;20044;-79
2022/06/11 06:42:00;;;;;;;22.05;5.28;;;;;;;15.54;83.35;102305.44;4900404;29;20096;-78
2022/06/11 06:44:27;;;;;;;13.73;3.38;;;;;;;15.57;83.28;102307.09;4908875;29;20284;-78
2022/06/11 06:46:52;;;;;;;20.40;3.95;;;;;;;15.58;83.10;102306.19;4910237;29;20040;-78
2022/06/11 06:49:18;;;;;;;30.70;4.88;;;;;;;15.58;82.75;102316.75;4900307;29;20035;-78
2022/06/11 06:51:43;;;;;;;17.55;3.75;;;;;;;15.59;82.95;102307.88;4902061;29;20048;-78
2022/06/11 06:54:09;;;;;;;20.13;3.88;;;;;;;15.62;83.15;102310.41;4902230;29;20041;-78
2022/06/11 06:56:35;;;;;;;21.27;4.05;;;;;;;15.63;83.13;102309.50;4915959;29;20103;-78
2022/06/11 06:59:01;;;;;;;21.48;4.22;;;;;;;15.65;83.21;102316.44;4895606;29;20257;-78
2022/06/11 07:01:28;;;;;;;20.33;3.90;;;;;;;15.66;83.27;102309.38;4903865;29;20364;-79
2022/06/11 07:03:54;;;;;;;21.17;3.75;;;;;;;15.66;82.76;102310.25;4898526;29;20051;-78
2022/06/11 07:06:20;;;;;;;25.35;4.30;;;;;;;15.68;82.37;102324.25;4910993;29;20055;-79
2022/06/11 07:08:45;;;;;;;16.13;4.00;;;;;;;15.69;82.46;102315.38;4897577;29;20058;-78
2022/06/11 07:11:10;;;;;;;21.85;3.70;;;;;;;15.70;82.56;102317.13;4909703;29;20196;-78
2022/06/11 07:13:36;;;;;;;23.67;4.32;;;;;;;15.71;82.38;102320.63;4899494;29;20043;-78
2022/06/11 07:16:04;;;;;;;15.90;3.40;;;;;;;15.71;81.35;102312.69;4904249;29;20131;-78
2022/06/11 07:18:44;;;;;;;14.20;3.70;;;;;;;15.72;81.07;102325.00;4900995;29;20032;-79
2022/06/11 07:21:16;;;;;;;12.30;2.92;;;;;;;15.72;80.96;102320.56;4898031;29;20284;-79
2022/06/11 07:23:57;;;;;;;21.42;3.42;;;;;;;15.74;80.57;102315.25;4908490;29;20035;-79
2022/06/11 07:26:33;;;;;;;19.45;4.22;;;;;;;15.73;79.77;102322.31;4897718;29;20028;-78
2022/06/11 07:29:07;;;;;;;18.60;4.50;;;;;;;15.73;78.74;102318.78;4911837;29;20031;-78
2022/06/11 07:31:33;;;;;;;28.50;4.30;;;;;;;15.74;78.94;102313.47;4913716;29;20339;-78
2022/06/11 07:33:59;;;;;;;19.65;3.33;;;;;;;15.75;78.80;102322.25;4921086;29;20039;-78
2022/06/11 07:36:25;;;;;;;14.65;3.13;;;;;;;15.74;78.19;102321.41;4905054;29;20047;-80
2022/06/11 07:38:51;;;;;;;15.30;3.05;;;;;;;15.76;78.24;102321.34;4902831;29;20109;-78
2022/06/11 07:41:16;;;;;;;15.48;3.67;;;;;;;15.78;78.06;102323.94;4910402;29;20063;-78
2022/06/11 07:43:42;;;;;;;18.13;3.45;;;;;;;15.77;77.04;102325.72;4928841;29;20389;-78
2022/06/11 07:46:07;;;;;;;19.42;3.78;;;;;;;15.79;76.96;102328.28;4909784;29;20060;-78
2022/06/11 07:48:33;;;;;;;11.07;2.60;;;;;;;15.83;77.55;102329.91;4910326;29;20230;-78
2022/06/11 07:50:59;;;;;;;16.00;3.22;;;;;;;15.83;78.00;102330.75;4927888;29;20029;-79
2022/06/11 07:53:24;;;;;;;15.80;3.25;;;;;;;15.86;77.90;102327.13;4902040;29;20056;-78
2022/06/11 07:55:52;;;;;;;11.63;2.92;;;;;;;15.88;77.58;102319.97;4909591;29;20036;-78
2022/06/11 07:58:20;;;;;;;21.30;3.60;;;;;;;15.89;77.61;102330.50;4914918;29;20032;-78
2022/06/11 08:00:49;;;;;;;14.70;3.25;;;;;;;15.91;77.06;102327.78;4900212;29;20067;-78
2022/06/11 08:03:14;;;;;;;;;;;;;;;15.92;76.31;102340.94;4914937;29;20404;-78
2022/06/11 08:05:41;;;;;;;11.40;3.10;;;;;;;15.92;75.34;102340.94;4915501;29;20206;-78
2022/06/11 08:08:07;;;;;;;10.45;3.00;;;;;;;15.95;74.80;102344.38;4915418;29;20037;-78
2022/06/11 08:10:35;;;;;;;17.27;2.78;;;;;;;15.97;75.26;102337.25;4902528;29;20040;-79
2022/06/11 08:13:03;;;;;;;13.55;2.45;;;;;;;16.00;76.42;102340.63;4915312;29;20028;-79
2022/06/11 08:15:29;;;;;;;11.70;2.85;;;;;;;15.99;74.58;102336.28;4911392;29;20354;-78
2022/06/11 08:17:54;;;;;;;15.43;2.58;;;;;;;16.03;74.79;102340.53;4893714;29;20107;-79
2022/06/11 08:20:24;;;;;;;12.30;2.88;;;;;;;16.07;74.87;102338.63;4913532;29;20044;-79
2022/06/11 08:22:50;;;;;;;12.90;2.53;;;;;;;16.10;75.49;102341.16;4915481;29;20040;-79
2022/06/11 08:25:17;;;;;;;13.18;3.00;;;;;;;16.11;75.46;102333.13;4909651;29;20028;-79
2022/06/11 08:27:44;;;;;;;16.67;3.38;;;;;;;16.12;73.67;102339.31;4907070;29;20232;-79
2022/06/11 08:30:13;;;;;;;10.45;2.55;;;;;;;16.14;74.09;102337.47;4913522;29;20275;-79
2022/06/11 08:32:38;;;;;;;13.68;2.80;;;;;;;16.16;73.54;102332.97;4916688;29;20066;-79
2022/06/11 08:35:05;;;;;;;9.75;2.42;;;;;;;16.20;73.49;102336.34;4911833;29;20341;-79
2022/06/11 08:37:32;;;;;;;8.85;2.65;;;;;;;16.21;74.04;102338.94;4917384;29;20110;-79
2022/06/11 08:39:58;;;;;;;15.60;3.60;;;;;;;16.20;72.44;102334.56;4910063;29;20075;-79
2022/06/11 08:42:35;;;;;;;11.18;2.78;;;;;;;16.24;73.87;102340.56;4921115;29;20049;-79
2022/06/11 08:45:06;;;;;;;14.90;3.13;;;;;;;16.26;72.94;102336.09;4906894;29;20032;-79
2022/06/11 08:47:40;;;;;;;12.63;2.95;;;;;;;16.29;73.75;102339.47;4923589;29;20032;-79
2022/06/11 08:50:08;;;;;;;12.45;2.53;;;;;;;16.34;72.35;102335.78;4913445;29;20032;-79
2022/06/11 08:52:34;;;;;;;14.57;2.88;;;;;;;16.38;73.24;102337.38;4914158;29;20032;-78
2022/06/11 08:55:00;;;;;;;8.68;2.20;;;;;;;16.42;74.59;102331.03;4913722;29;20263;-79
2022/06/11 08:57:57;;;;;;;16.73;3.40;;;;;;;16.45;73.46;102334.41;4914319;29;20024;-79
2022/06/11 09:00:34;;;;;;;15.13;3.95;;;;;;;16.46;72.36;102330.84;4906107;29;20300;-79
2022/06/11 09:02:59;;;;;;;11.68;2.60;;;;;;;16.50;74.22;102332.44;4908046;29;20071;-79
2022/06/11 09:05:46;;;;;;;18.95;3.45;;;;;;;16.52;72.11;102327.09;4917139;29;20335;-79
2022/06/11 09:08:41;;;;;;;14.70;3.35;;;;;;;16.58;74.01;102324.19;4905314;29;20036;-79
2022/06/11 09:11:15;;;;;;;20.70;3.55;;;;;;;16.60;73.20;102324.97;4897141;29;20306;-79
2022/06/11 09:14:06;;;;;;;10.50;3.13;;;;;;;16.63;73.51;102327.50;4900350;29;20230;-79
2022/06/11 09:17:10;;;;;;;20.75;3.53;;;;;;;16.65;72.86;102322.13;4900014;29;20050;-79
2022/06/11 09:19:56;;;;;;;16.40;2.60;;;;;;;16.69;73.76;102326.38;4870299;29;21212;-79
2022/06/11 09:22:46;;;;;;;12.23;2.60;;;;;;;16.70;73.20;102323.66;4907772;29;20283;-79
2022/06/11 09:25:25;;;;;;;11.13;3.30;;;;;;;16.70;73.32;102323.66;4916323;29;20090;-79
2022/06/11 09:28:08;;;;;;;12.27;2.85;;;;;;;16.71;73.81;102316.56;4904600;29;20220;-79
2022/06/11 09:30:39;;;;;;;10.18;2.13;;;;;;;16.72;73.76;102320.97;4914591;29;20385;-79
2022/06/11 09:33:15;;;;;;;14.05;2.88;;;;;;;16.75;74.16;102328.72;4906143;29;20042;-79
2022/06/11 09:35:56;;;;;;;14.10;3.05;;;;;;;16.77;73.87;102333.97;4906252;29;20048;-79
2022/06/11 09:38:37;;;;;;;14.15;3.22;;;;;;;16.79;71.81;102327.69;4911849;29;20056;-79
2022/06/11 09:41:10;;;;;;;7.93;2.20;;;;;;;16.85;72.87;102326.59;4894105;29;20032;-79
2022/06/11 09:43:57;;;;;;;16.58;3.10;;;;;;;16.93;72.79;102334.19;4903527;29;20036;-79
2022/06/11 09:46:35;;;;;;;12.30;2.75;;;;;;;16.99;73.33;102325.97;4894551;29;20051;-79
2022/06/11 09:49:19;;;;;;;16.60;2.60;;;;;;;17.02;73.34;102326.69;4905380;29;20040;-79
2022/06/11 09:52:07;;;;;;;13.90;2.78;;;;;;;17.11;73.50;102327.25;4898556;29;20036;-79
2022/06/11 09:54:51;;;;;;;14.63;3.30;;;;;;;17.16;74.30;102326.09;4901822;29;20032;-78
2022/06/11 09:57:19;;;;;;;19.10;3.20;;;;;;;17.22;73.20;102335.56;4888941;29;20060;-79
2022/06/11 09:59:49;;;;;;;17.73;4.07;;;;;;;17.25;74.40;102336.28;4906404;29;20048;-79
2022/06/11 10:02:37;;;;;;;12.65;3.05;;;;;;;17.33;74.17;102340.38;4907591;29;20051;-79
2022/06/11 10:05:17;;;;;;;16.10;3.35;;;;;;;17.35;73.47;102333.22;4907144;29;20315;-79
2022/06/11 10:07:46;;;;;;;17.95;3.60;;;;;;;17.40;73.76;102342.66;4905021;29;20355;-79
2022/06/11 10:10:19;;;;;;;16.70;3.35;;;;;;;17.43;72.89;102339.88;4899198;29;20044;-79
2022/06/11 10:13:08;;;;;;;16.65;3.53;;;;;;;17.44;73.80;102344.25;4917156;29;20249;-79
2022/06/11 10:15:34;;;;;;;;;;;;;;;17.44;74.75;102353.97;4906661;29;20240;-79
2022/06/11 10:18:08;;;;;;;12.70;3.58;;;;;;;17.43;74.07;102352.28;4899500;29;19915;-79
2022/06/11 10:20:39;;;;;;;12.38;3.35;;;;;;;17.42;72.58;102361.13;4915918;29;20039;-79
2022/06/11 10:23:25;;;;;;;15.02;3.45;;;;;;;17.38;73.42;102360.41;4911415;29;20040;-79
2022/06/11 10:25:56;;;;;;;19.67;3.80;;;;;;;17.38;72.69;102359.56;4911959;29;20036;-79
2022/06/11 10:28:31;;;;;;;14.02;3.30;;;;;;;17.41;73.88;102357.63;4908646;29;20032;-79
2022/06/11 10:31:08;;;;;;;12.90;3.55;;;;;;;17.45;74.19;102363.66;4910569;29;20048;-79
2022/06/11 10:33:37;;;;;;;18.58;3.67;;;;;;;17.46;70.51;102357.41;4898996;29;20032;-78
2022/06/11 10:36:15;;;;;;;20.45;3.90;;;;;;;17.52;70.92;102359.78;4903381;29;20032;-79
2022/06/11 10:39:13;;;;;;;12.38;3.25;;;;;;;17.57;72.53;102355.16;4901607;29;20354;-79
2022/06/11 10:41:48;;;;;;;19.17;2.90;;;;;;;17.58;69.79;102359.50;4902859;29;20043;-78
2022/06/11 10:44:35;;;;;;;20.20;3.78;;;;;;;17.61;70.85;102362.00;4899181;29;20785;-78
2022/06/11 10:47:12;;;;;;;16.55;3.50;;;;;;;17.70;73.34;102360.75;4905149;29;20055;-78
2022/06/11 10:49:38;;;;;;;16.35;3.20;;;;;;;17.75;72.82;102355.22;4899986;29;20056;-79
2022/06/11 10:52:16;;;;;;;12.35;3.50;;;;;;;17.76;73.67;102362.25;4900790;29;20088;-79
2022/06/11 10:54:41;;;;;;;25.00;3.35;;;;;;;17.76;73.25;102364.88;4901145;29;20041;-78
2022/06/11 10:57:21;;;;;;;16.05;3.60;;;;;;;17.78;72.39;102358.56;4902304;29;20043;-78
2022/06/11 11:00:04;;;;;;;12.60;2.92;;;;;;;17.83;72.50;102347.78;4911299;29;20034;-79
2022/06/11 11:02:44;;;;;;;16.25;2.85;;;;;;;17.87;70.67;102361.75;4907873;29;20136;-79
2022/06/11 11:05:12;;;;;;;12.13;2.80;;;;;;;17.91;69.51;102358.03;4917540;29;20036;-78
2022/06/11 11:07:55;;;;;;;15.80;3.42;;;;;;;17.97;69.32;102355.06;4911843;29;20043;-79
2022/06/11 11:10:30;;;;;;;16.45;3.20;;;;;;;18.00;67.90;102358.44;4911350;29;20040;-78
2022/06/11 11:12:59;;;;;;;13.20;3.10;;;;;;;18.02;68.14;102356.56;4922621;29;20059;-79
2022/06/11 11:15:28;;;;;;;15.52;3.25;;;;;;;18.08;70.36;102365.16;4900780;29;20032;-79
2022/06/11 11:17:59;;;;;;;9.35;2.53;;;;;;;18.08;67.48;102355.44;4914404;29;20261;-79
2022/06/11 11:20:35;;;;;;;8.63;2.42;;;;;;;18.13;69.79;102361.34;4918200;29;20035;-79
2022/06/11 11:23:23;;;;;;;18.70;3.17;;;;;;;18.17;69.32;102364.72;4914196;29;20032;-79
2022/06/11 11:25:53;;;;;;;;;;;;;;;18.20;71.20;102362.78;4898449;29;20044;-79
2022/06/11 11:28:24;;;;;;;15.48;3.25;;;;;;;18.22;69.87;102357.41;4907798;29;19926;-79
2022/06/11 11:31:03;;;;;;;12.98;2.50;;;;;;;18.26;70.92;102363.41;4899667;29;20200;-79
2022/06/11 11:33:32;;;;;;;9.23;2.33;;;;;;;18.27;67.37;102354.53;4903779;29;20318;-78
2022/06/11 11:36:03;;;;;;;12.40;2.72;;;;;;;18.26;67.56;102358.13;4914704;29;20036;-79
2022/06/11 11:38:28;;;;;;;11.13;2.60;;;;;;;18.23;65.83;102359.97;4908997;29;20296;-80
2022/06/11 11:41:02;;;;;;;13.02;2.67;;;;;;;18.23;66.99;102362.63;4892049;29;20050;-78
2022/06/11 11:43:41;;;;;;;15.80;3.20;;;;;;;18.22;68.05;102368.88;4900255;29;20047;-79
2022/06/11 11:46:11;;;;;;;;;;;;;;;18.20;68.52;102376.03;4899899;29;20443;-78